Time;durP1;ratioP1;P1;durP2;ratioP2;P2;SDS_P1;SDS_P2;PMS_P1;PMS_P2;Temp;Humidity;BMP_temperature;BMP_pressure;BME280_temperature;BME280_humidity;BME280_pressure;Samples;Min_cycle;Max_cycle;Signal;HPM_P1;HPM_P2
2022/06/04 00:00:25;;;;;;;33.70;15.70;;;;;;;19.74;100.00;100760.06;4974918;28;20074;-82
2022/06/04 00:02:51;;;;;;;26.38;15.95;;;;;;;19.77;100.00;100764.16;4975053;28;20042;-82
2022/06/04 00:05:26;;;;;;;32.67;15.80;;;;;;;19.93;100.00;100753.72;4974898;28;20098;-84
2022/06/04 00:07:53;;;;;;;27.58;15.52;;;;;;;19.82;100.00;100746.34;4974885;28;20042;-83
2022/06/04 00:16:03;;;;;;;35.22;18.52;;;;;;;20.04;100.00;100749.50;4974529;28;20050;-80
2022/06/04 00:18:28;;;;;;;42.78;19.25;;;;;;;20.14;100.00;100747.16;4974367;28;20090;-82
2022/06/04 00:20:55;;;;;;;37.83;20.50;;;;;;;20.18;100.00;100743.00;4974222;28;20031;-83
2022/06/04 00:23:22;;;;;;;45.03;23.23;;;;;;;20.08;100.00;100730.00;4974522;28;20042;-81
2022/06/04 00:25:53;;;;;;;44.60;23.02;;;;;;;20.00;100.00;100722.22;4974500;28;20034;-82
2022/06/04 00:28:21;;;;;;;42.47;21.97;;;;;;;19.91;100.00;100718.16;4974472;28;20034;-82
2022/06/04 00:30:47;;;;;;;41.25;22.75;;;;;;;19.97;100.00;100717.28;4974729;28;20289;-82
2022/06/04 00:33:15;;;;;;;38.08;21.10;;;;;;;19.96;100.00;100722.84;4974711;28;20050;-82
2022/06/04 00:35:42;;;;;;;45.25;22.50;;;;;;;19.90;100.00;100713.81;4973883;28;20526;-89
2022/06/04 00:38:09;;;;;;;31.42;20.23;;;;;;;19.83;100.00;100723.78;4972867;28;20038;-82
2022/06/04 00:41:02;;;;;;;32.92;19.33;;;;;;;20.02;100.00;100733.56;4974200;28;20086;-83
2022/06/04 00:43:28;;;;;;;31.33;18.70;;;;;;;20.06;100.00;100726.72;4974278;28;20038;-80
2022/06/04 00:46:31;;;;;;;29.33;18.35;;;;;;;19.97;100.00;100719.97;4974159;28;20089;-82
2022/06/04 00:48:56;;;;;;;39.83;19.17;;;;;;;19.84;100.00;100717.38;4974072;28;20099;-82
2022/06/04 00:51:24;;;;;;;37.85;19.25;;;;;;;19.77;100.00;100703.13;4973063;28;20074;-81
2022/06/04 00:53:50;;;;;;;32.67;18.40;;;;;;;19.58;100.00;100698.72;4973174;28;20432;-84
2022/06/04 00:56:35;;;;;;;36.30;19.58;;;;;;;19.42;100.00;100696.53;4974426;28;20031;-82
2022/06/04 00:59:03;;;;;;;34.38;19.70;;;;;;;19.37;100.00;100693.63;4974325;28;20552;-82
2022/06/04 01:01:38;;;;;;;40.42;18.55;;;;;;;19.50;100.00;100699.78;4973747;28;20042;-82
2022/06/04 01:04:47;;;;;;;31.13;18.65;;;;;;;19.55;100.00;100701.84;4972822;28;20038;-91
2022/06/04 01:07:47;;;;;;;54.38;18.65;;;;;;;19.58;100.00;100704.09;4974035;28;20046;-82
2022/06/04 01:10:44;;;;;;;30.48;17.50;;;;;;;19.63;100.00;100709.63;4974029;28;20124;-81
2022/06/04 01:13:49;;;;;;;29.58;17.35;;;;;;;19.53;100.00;100717.34;4973996;28;20077;-82
2022/06/04 01:16:33;;;;;;;31.13;16.92;;;;;;;19.68;100.00;100712.50;4973866;28;20035;-81
2022/06/04 01:19:20;;;;;;;28.80;17.80;;;;;;;19.61;100.00;100711.72;4973695;28;20039;-86
2022/06/04 01:22:13;;;;;;;32.33;18.70;;;;;;;19.68;100.00;100707.13;4973924;28;20122;-82
2022/06/04 01:24:49;;;;;;;31.83;18.63;;;;;;;19.64;100.00;100700.53;4973986;28;20059;-82
2022/06/04 01:27:22;;;;;;;42.30;19.85;;;;;;;19.62;100.00;100696.44;4973789;28;20038;-83
2022/06/04 01:29:47;;;;;;;37.50;18.35;;;;;;;19.50;100.00;100696.28;4970759;28;20031;-82
2022/06/04 01:32:21;;;;;;;35.42;19.50;;;;;;;19.49;100.00;100697.31;4962315;28;20110;-81
2022/06/04 01:34:54;;;;;;;37.17;19.75;;;;;;;19.55;100.00;100699.16;4968245;28;20397;-82
2022/06/04 01:37:29;;;;;;;35.40;20.10;;;;;;;19.47;100.00;100710.16;4974492;28;20031;-86
2022/06/04 01:42:45;;;;;;;32.72;19.23;;;;;;;19.57;100.00;100721.25;4964603;28;20189;-82
2022/06/04 01:45:15;;;;;;;33.60;19.17;;;;;;;19.56;100.00;100719.59;4964559;28;20035;-82
2022/06/04 01:47:43;;;;;;;39.40;20.92;;;;;;;19.48;100.00;100717.19;4965950;28;20038;-81
2022/06/04 01:50:14;;;;;;;41.35;21.33;;;;;;;19.55;100.00;100712.59;4966948;28;20113;-82
2022/06/04 01:52:41;;;;;;;37.92;21.27;;;;;;;19.55;100.00;100707.22;4965828;28;20035;-86
2022/06/04 01:55:23;;;;;;;45.60;23.40;;;;;;;19.48;100.00;100706.44;4967676;28;20480;-83
2022/06/04 01:57:55;;;;;;;37.80;22.48;;;;;;;19.23;100.00;100702.78;4966969;28;20035;-81
2022/06/04 02:00:29;;;;;;;45.67;22.92;;;;;;;19.13;100.00;100705.09;4966588;28;20042;-82
2022/06/04 02:03:12;;;;;;;35.55;22.02;;;;;;;19.09;100.00;100696.66;4967745;28;20098;-81
2022/06/04 02:06:07;;;;;;;42.55;21.83;;;;;;;19.24;100.00;100699.06;4974824;28;20043;-82
2022/06/04 02:08:59;;;;;;;39.35;21.70;;;;;;;19.21;100.00;100704.88;4982572;28;20042;-79
2022/06/04 02:11:26;;;;;;;40.33;21.20;;;;;;;19.18;100.00;100689.19;4978247;28;20043;-81
2022/06/04 02:13:55;;;;;;;38.15;20.73;;;;;;;19.34;100.00;100683.31;4970375;28;20066;-82
2022/06/04 02:16:30;;;;;;;33.28;20.10;;;;;;;19.29;100.00;100683.16;4970391;28;20143;-80
2022/06/04 02:18:57;;;;;;;37.38;21.98;;;;;;;19.22;100.00;100685.88;4970362;28;20035;-80
2022/06/04 02:21:24;;;;;;;39.15;21.30;;;;;;;19.26;100.00;100684.38;4947626;28;20031;-82
2022/06/04 02:23:50;;;;;;;34.03;21.25;;;;;;;19.19;100.00;100672.03;4957498;28;20035;-82
2022/06/04 02:26:17;;;;;;;38.28;22.30;;;;;;;19.12;100.00;100668.56;4957241;28;20118;-81
2022/06/04 02:28:46;;;;;;;41.58;23.35;;;;;;;19.18;100.00;100662.31;4957246;28;20050;-89
2022/06/04 02:31:23;;;;;;;35.33;23.35;;;;;;;19.06;100.00;100660.28;4956986;28;20465;-82
2022/06/04 02:34:10;;;;;;;42.58;23.27;;;;;;;19.10;100.00;100666.91;4957093;28;20485;-81
2022/06/04 02:36:56;;;;;;;35.20;23.13;;;;;;;19.14;100.00;100671.84;4957007;28;20118;-82
2022/06/04 02:39:37;;;;;;;35.63;23.48;;;;;;;19.09;100.00;100673.28;4956969;28;20043;-81
2022/06/04 02:42:38;;;;;;;36.25;23.80;;;;;;;19.18;100.00;100663.16;4957005;28;20036;-82
2022/06/04 02:45:28;;;;;;;38.53;23.75;;;;;;;19.29;100.00;100672.41;4926356;28;20485;-84
2022/06/04 02:48:02;;;;;;;48.30;25.40;;;;;;;19.40;100.00;100671.69;4956655;28;20039;-82
2022/06/04 02:50:30;;;;;;;44.30;25.30;;;;;;;19.46;100.00;100665.47;4956953;28;20030;-83
2022/06/04 02:52:58;;;;;;;47.50;26.10;;;;;;;19.40;100.00;100669.00;4956835;29;20464;-82
2022/06/04 02:55:28;;;;;;;41.50;25.83;;;;;;;19.24;100.00;100661.44;4956568;28;20090;-82
2022/06/04 02:57:58;;;;;;;44.85;27.52;;;;;;;19.24;100.00;100664.97;4955911;28;20158;-82
2022/06/04 03:00:26;;;;;;;41.55;26.25;;;;;;;19.31;100.00;100656.88;4956518;28;20118;-82
2022/06/04 03:02:52;;;;;;;45.63;28.90;;;;;;;19.21;100.00;100656.50;4956167;28;20042;-84
2022/06/04 03:05:21;;;;;;;52.95;30.75;;;;;;;19.20;100.00;100652.16;4956369;28;20180;-81
2022/06/04 03:07:50;;;;;;;52.03;31.27;;;;;;;19.02;100.00;100659.06;4956872;28;20487;-86
2022/06/04 03:10:27;;;;;;;55.78;31.23;;;;;;;19.03;100.00;100654.53;4956468;29;20386;-83
2022/06/04 03:12:53;;;;;;;58.42;32.08;;;;;;;18.84;100.00;100639.31;4955968;28;20481;-83
2022/06/04 03:15:20;;;;;;;60.50;32.92;;;;;;;18.60;100.00;100640.84;4955993;28;20102;-80
2022/06/04 03:17:47;;;;;;;60.13;33.88;;;;;;;18.58;100.00;100640.25;4956476;28;20544;-81
2022/06/04 03:20:16;;;;;;;55.55;33.42;;;;;;;18.59;100.00;100653.44;4956046;28;20039;-81
2022/06/04 03:22:42;;;;;;;57.08;34.03;;;;;;;18.82;100.00;100663.72;4955688;28;20070;-87
2022/06/04 03:25:08;;;;;;;54.72;32.03;;;;;;;18.92;100.00;100669.47;4956322;29;20031;-87
2022/06/04 03:27:33;;;;;;;52.45;32.90;;;;;;;19.03;100.00;100663.41;4956634;29;20047;-84
2022/06/04 03:29:59;;;;;;;54.58;31.27;;;;;;;19.08;100.00;100658.25;4956738;29;20035;-83
2022/06/04 03:32:24;;;;;;;69.38;33.67;;;;;;;19.08;100.00;100655.53;4956552;28;20028;-81
2022/06/04 03:34:50;;;;;;;51.00;30.20;;;;;;;19.04;100.00;100669.59;4956687;28;20035;-82
2022/06/04 03:37:16;;;;;;;54.78;30.73;;;;;;;18.98;100.00;100662.41;4956815;28;20035;-88
2022/06/04 03:39:42;;;;;;;50.00;30.58;;;;;;;18.98;100.00;100651.66;4957354;28;20050;-84
2022/06/04 03:42:07;;;;;;;47.28;30.80;;;;;;;18.96;100.00;100661.78;4958847;28;20047;-83
2022/06/04 03:44:33;;;;;;;50.58;28.38;;;;;;;18.96;100.00;100673.34;4959797;28;20039;-81
2022/06/04 03:46:59;;;;;;;50.20;29.00;;;;;;;18.98;100.00;100684.72;4957658;28;20392;-83
2022/06/04 03:49:27;;;;;;;45.13;29.42;;;;;;;18.93;100.00;100676.47;4957053;29;20039;-82
2022/06/04 03:51:53;;;;;;;50.97;29.52;;;;;;;18.97;100.00;100656.22;4956586;28;20532;-85
2022/06/04 03:54:52;;;;;;;54.10;26.45;;;;;;;18.96;100.00;100659.91;4955890;28;20408;-85
2022/06/04 03:59:55;;;;;;;41.78;25.30;;;;;;;18.83;100.00;100676.09;4955374;28;20055;-84
2022/06/04 04:02:21;;;;;;;38.60;23.20;;;;;;;18.78;100.00;100686.66;4955634;28;20364;-82
2022/06/04 04:04:47;;;;;;;37.92;21.25;;;;;;;18.70;100.00;100697.63;4955368;28;20488;-81
2022/06/04 04:07:14;;;;;;;38.90;20.63;;;;;;;18.59;100.00;100706.34;4955477;28;20042;-81
2022/06/04 04:09:40;;;;;;;32.40;20.02;;;;;;;18.54;100.00;100712.31;4954800;28;20035;-82
2022/06/04 04:12:06;;;;;;;32.08;19.80;;;;;;;18.68;100.00;100721.19;4957666;28;20105;-82
2022/06/04 04:14:32;;;;;;;31.73;19.23;;;;;;;18.85;100.00;100719.69;4966782;28;20118;-84
2022/06/04 04:16:57;;;;;;;33.67;19.02;;;;;;;18.84;100.00;100719.88;4974972;28;20481;-83
2022/06/04 04:19:26;;;;;;;29.17;18.70;;;;;;;18.95;100.00;100721.94;4974642;28;20035;-81
2022/06/04 04:21:52;;;;;;;33.88;19.95;;;;;;;18.92;100.00;100707.06;4974499;28;20459;-88
2022/06/04 04:24:18;;;;;;;32.03;18.30;;;;;;;18.88;100.00;100711.22;4974699;28;20477;-82
2022/06/04 04:26:43;;;;;;;31.63;18.80;;;;;;;18.87;100.00;100701.50;4974805;28;20062;-83
2022/06/04 04:29:09;;;;;;;35.13;20.35;;;;;;;18.86;100.00;100699.84;4973369;28;20042;-82
2022/06/04 04:31:35;;;;;;;37.00;19.27;;;;;;;18.92;100.00;100696.31;4974897;28;20073;-80
2022/06/04 04:34:01;;;;;;;43.53;20.30;;;;;;;18.99;100.00;100705.16;4975963;28;20046;-85
2022/06/04 04:36:30;;;;;;;35.33;19.42;;;;;;;19.07;100.00;100696.88;4977646;28;20043;-82
2022/06/04 04:38:57;;;;;;;32.60;18.40;;;;;;;19.13;100.00;100692.50;4975480;28;20620;-85
2022/06/04 04:41:26;;;;;;;37.33;19.60;;;;;;;19.19;100.00;100690.84;4974868;28;20362;-85
2022/06/04 04:43:52;;;;;;;26.70;18.50;;;;;;;19.31;100.00;100699.88;4978382;28;20553;-83
2022/06/04 04:46:19;;;;;;;33.58;17.52;;;;;;;19.49;100.00;100703.50;4976049;28;20046;-84
2022/06/04 04:48:47;;;;;;;26.42;17.02;;;;;;;19.44;100.00;100700.66;4978764;28;20118;-82
2022/06/04 04:51:22;;;;;;;33.05;18.48;;;;;;;19.43;100.00;100704.38;4978453;28;20038;-83
2022/06/04 04:53:49;;;;;;;26.83;16.98;;;;;;;19.55;100.00;100697.25;5050871;23;20049;-83
2022/06/04 04:56:17;;;;;;;30.95;17.77;;;;;;;19.58;100.00;100704.09;5028130;28;20025;-81
2022/06/04 04:58:43;;;;;;;29.33;16.52;;;;;;;19.66;100.00;100703.81;5034483;28;20444;-82
2022/06/04 05:01:24;;;;;;;28.33;17.50;;;;;;;19.54;100.00;100708.25;5033954;28;20039;-80
2022/06/04 05:03:51;;;;;;;33.92;17.80;;;;;;;19.65;100.00;100707.56;5034516;28;20047;-87
2022/06/04 05:06:19;;;;;;;35.40;17.73;;;;;;;19.59;100.00;100713.78;5034544;28;20040;-80
2022/06/04 05:08:46;;;;;;;28.60;16.70;;;;;;;19.80;100.00;100710.78;5039539;28;20036;-84
2022/06/04 05:11:14;;;;;;;30.60;16.42;;;;;;;19.92;100.00;100718.97;5036077;28;20032;-85
2022/06/04 05:13:40;;;;;;;31.95;16.67;;;;;;;19.82;100.00;100727.50;5039045;28;20478;-83
2022/06/04 05:16:06;;;;;;;31.63;16.35;;;;;;;19.78;100.00;100729.00;5035279;28;20030;-84
2022/06/04 05:18:32;;;;;;;29.60;16.38;;;;;;;19.72;100.00;100735.22;5034687;28;20083;-85
2022/06/04 05:21:09;;;;;;;30.67;15.65;;;;;;;19.71;100.00;100738.97;5031535;28;20613;-85
2022/06/04 05:23:34;;;;;;;30.08;15.55;;;;;;;19.74;100.00;100741.22;5039852;28;20042;-83
2022/06/04 05:26:02;;;;;;;27.33;15.90;;;;;;;19.79;100.00;100746.75;5038524;28;20737;-85
2022/06/04 05:28:31;;;;;;;31.25;16.17;;;;;;;19.94;100.00;100738.41;5036610;28;20368;-83
2022/06/04 05:30:57;;;;;;;26.40;15.40;;;;;;;20.06;100.00;100747.41;5050711;28;20087;-89
2022/06/04 05:33:23;;;;;;;24.60;13.50;;;;;;;20.33;100.00;100754.28;5033936;28;20037;-81
2022/06/04 05:35:49;;;;;;;25.10;14.45;;;;;;;20.34;100.00;100757.78;5016431;28;20134;-85
2022/06/04 05:38:15;;;;;;;27.92;13.88;;;;;;;20.32;100.00;100752.63;5032962;28;20129;-87
2022/06/04 05:40:41;;;;;;;25.27;14.05;;;;;;;20.43;100.00;100751.06;5037146;28;20036;-85
2022/06/04 05:43:09;;;;;;;24.80;14.15;;;;;;;20.61;100.00;100746.53;5039921;28;20037;-84
2022/06/04 05:45:34;;;;;;;22.60;13.93;;;;;;;20.66;100.00;100742.38;5036209;28;20041;-86
2022/06/04 05:48:00;;;;;;;31.75;15.10;;;;;;;20.91;100.00;100752.03;5020475;28;20041;-84
2022/06/04 05:50:29;;;;;;;27.27;16.45;;;;;;;20.96;100.00;100754.06;5038383;28;20018;-85
2022/06/04 05:52:55;;;;;;;31.30;16.05;;;;;;;21.10;100.00;100756.44;4993807;28;20520;-83
2022/06/04 05:55:27;;;;;;;32.08;18.48;;;;;;;21.12;100.00;100757.03;5010046;28;20104;-85
2022/06/04 05:57:53;;;;;;;36.63;21.67;;;;;;;21.35;100.00;100771.69;5026241;28;20600;-84
2022/06/04 06:00:18;;;;;;;42.75;22.50;;;;;;;21.36;100.00;100771.47;5036661;28;20033;-86
2022/06/04 06:02:44;;;;;;;38.53;24.10;;;;;;;21.40;100.00;100766.44;5039085;28;20037;-83
2022/06/04 06:05:09;;;;;;;36.83;24.83;;;;;;;21.37;100.00;100778.50;5004803;28;20041;-83
2022/06/04 06:07:35;;;;;;;46.80;25.70;;;;;;;21.45;100.00;100774.66;5040394;28;20033;-82
2022/06/04 06:10:01;;;;;;;51.58;30.30;;;;;;;21.53;100.00;100790.53;5040763;28;20087;-84
2022/06/04 06:12:27;;;;;;;49.40;28.88;;;;;;;21.76;100.00;100777.16;5041065;28;20486;-87
2022/06/04 06:14:52;;;;;;;51.90;33.28;;;;;;;21.88;100.00;100786.09;5020903;28;20075;-84
2022/06/04 06:17:18;;;;;;;60.17;36.40;;;;;;;21.99;100.00;100773.75;5001060;28;20045;-85
2022/06/04 06:19:43;;;;;;;62.47;37.42;;;;;;;22.17;100.00;100780.97;5020046;28;20030;-84
2022/06/04 06:22:11;;;;;;;67.10;43.65;;;;;;;22.14;100.00;100785.75;5004457;28;20045;-84
2022/06/04 06:24:52;;;;;;;69.78;43.53;;;;;;;22.18;100.00;100780.72;5025348;28;20038;-81
2022/06/04 06:27:17;;;;;;;73.70;45.03;;;;;;;22.17;100.00;100779.09;5020810;28;20042;-82
2022/06/04 06:30:02;;;;;;;74.65;44.38;;;;;;;22.15;100.00;100787.41;5029207;28;20041;-82
2022/06/04 06:32:27;;;;;;;63.83;39.47;;;;;;;22.24;100.00;100785.19;5007782;28;20042;-81
2022/06/04 06:34:53;;;;;;;71.40;40.00;;;;;;;22.30;100.00;100783.44;5026052;28;20037;-83
2022/06/04 06:37:18;;;;;;;62.90;37.15;;;;;;;22.34;100.00;100776.53;5021819;28;20065;-80
2022/06/04 06:39:44;;;;;;;57.15;36.33;;;;;;;22.47;100.00;100777.09;5022529;28;20045;-83
2022/06/04 06:42:12;;;;;;;54.78;33.60;;;;;;;22.86;100.00;100775.63;5022268;28;20029;-89
2022/06/04 06:44:50;;;;;;;55.92;35.05;;;;;;;23.41;100.00;100775.19;5005813;28;20480;-81
2022/06/04 06:47:19;;;;;;;55.90;34.67;;;;;;;23.77;100.00;100780.22;5021470;28;20107;-83
2022/06/04 06:49:45;;;;;;;49.08;31.25;;;;;;;24.05;100.00;100782.09;5020191;28;20402;-84
2022/06/04 06:52:11;;;;;;;49.75;31.70;;;;;;;24.44;100.00;100791.19;5015649;28;20030;-86
2022/06/04 06:54:37;;;;;;;55.22;31.38;;;;;;;25.55;100.00;100790.09;5021646;28;20506;-84
2022/06/04 06:57:06;;;;;;;55.92;29.23;;;;;;;25.29;100.00;100788.13;5016923;28;20057;-84
2022/06/04 06:59:32;;;;;;;41.85;24.48;;;;;;;25.43;100.00;100795.59;5019156;28;20063;-83
2022/06/04 07:01:59;;;;;;;44.13;25.58;;;;;;;25.31;100.00;100789.50;5000811;28;20084;-88
2022/06/04 07:04:27;;;;;;;49.08;24.33;;;;;;;25.62;100.00;100788.00;5015860;28;20017;-88
2022/06/04 07:06:56;;;;;;;35.53;22.35;;;;;;;25.63;100.00;100789.63;5017661;28;20040;-87
2022/06/04 07:09:23;;;;;;;39.28;23.55;;;;;;;26.14;100.00;100786.38;5016557;28;20038;-84
2022/06/04 07:11:49;;;;;;;37.22;23.55;;;;;;;26.42;100.00;100787.97;5018358;28;20034;-87
2022/06/04 07:14:16;;;;;;;35.20;23.58;;;;;;;26.72;100.00;100792.81;5002271;28;20041;-89
2022/06/04 07:16:43;;;;;;;36.30;22.48;;;;;;;27.26;100.00;100798.88;5012558;28;20041;-87
2022/06/04 07:19:13;;;;;;;33.13;21.38;;;;;;;27.03;100.00;100800.13;5012702;28;20029;-89
2022/06/04 07:21:40;;;;;;;37.85;21.70;;;;;;;26.75;100.00;100805.88;5026022;28;20034;-90
2022/06/04 07:24:07;;;;;;;39.13;21.73;;;;;;;26.77;100.00;100808.34;5036231;28;20037;-89
2022/06/04 07:26:34;;;;;;;35.85;23.70;;;;;;;26.83;100.00;100797.28;5032080;28;20030;-83
2022/06/04 07:29:00;;;;;;;38.35;25.63;;;;;;;27.06;100.00;100802.31;5017063;28;20087;-86
2022/06/04 07:31:29;;;;;;;44.08;26.45;;;;;;;26.69;100.00;100798.78;5035193;28;20495;-85
2022/06/04 07:33:56;;;;;;;41.95;25.40;;;;;;;27.07;100.00;100801.25;5036260;28;20038;-84
2022/06/04 07:36:32;;;;;;;45.33;27.13;;;;;;;26.84;100.00;100796.22;5025722;28;20037;-89
2022/06/04 07:38:58;;;;;;;39.88;26.92;;;;;;;27.36;97.20;100793.47;5033196;28;20088;-87
2022/06/04 07:41:31;;;;;;;39.70;23.45;;;;;;;27.58;97.99;100812.34;5035104;28;20025;-87
2022/06/04 07:43:58;;;;;;;40.20;23.83;;;;;;;27.31;98.78;100803.53;5032682;28;20037;-88
2022/06/04 07:46:25;;;;;;;45.20;27.13;;;;;;;27.35;99.06;100807.34;5033464;28;20516;-84
2022/06/04 07:48:54;;;;;;;46.33;27.50;;;;;;;27.53;97.74;100804.19;5033933;28;20037;-85
2022/06/04 07:51:19;;;;;;;41.70;27.60;;;;;;;27.40;99.32;100804.66;5017789;28;20025;-90
2022/06/04 07:53:45;;;;;;;45.25;27.50;;;;;;;27.64;97.41;100816.75;5034672;28;20045;-89
2022/06/04 07:56:14;;;;;;;41.78;29.63;;;;;;;27.73;97.43;100809.69;5035428;28;20451;-88
2022/06/04 07:58:40;;;;;;;48.38;28.52;;;;;;;27.51;100.00;100809.88;5038200;28;20653;-84
2022/06/04 08:01:07;;;;;;;44.45;27.88;;;;;;;27.14;100.00;100807.25;5043760;28;20121;-86
2022/06/04 08:03:34;;;;;;;49.33;28.98;;;;;;;27.86;96.07;100801.00;5044700;28;20018;-81
2022/06/04 08:06:01;;;;;;;42.50;27.75;;;;;;;27.67;97.82;100799.88;5055109;28;20075;-86
2022/06/04 08:08:27;;;;;;;43.78;27.73;;;;;;;27.47;97.19;100805.25;5054489;28;20044;-82
2022/06/04 08:10:52;;;;;;;40.00;27.17;;;;;;;27.48;97.37;100801.44;5054651;28;20033;-86
2022/06/04 08:13:24;;;;;;;41.90;27.95;;;;;;;27.38;97.59;100813.06;5057465;28;20044;-87
2022/06/04 08:19:38;;;;;;;43.72;27.92;;;;;;;27.71;95.77;100806.41;5048312;22;20065;-96
2022/06/04 08:22:15;;;;;;;43.13;27.70;;;;;;;28.15;92.59;100807.63;4973982;28;20070;-93
2022/06/04 08:28:00;;;;;;;35.00;23.48;;;;;;;28.49;87.66;100801.63;4852341;26;20093;-93
2022/06/04 08:30:25;;;;;;;37.92;26.55;;;;;;;28.47;89.84;100809.28;4989727;28;20049;-92
2022/06/04 08:32:51;;;;;;;35.92;25.27;;;;;;;28.23;88.74;100807.09;4989284;28;20054;-91
2022/06/04 08:35:27;;;;;;;32.72;22.00;;;;;;;28.41;86.32;100799.44;4990986;28;20042;-93
2022/06/04 08:37:53;;;;;;;38.88;24.40;;;;;;;29.14;85.62;100798.00;4974082;28;20030;-93
2022/06/04 08:40:32;;;;;;;44.10;27.20;;;;;;;28.97;85.85;100802.97;4959545;28;20030;-91
2022/06/04 08:43:24;;;;;;;36.97;25.63;;;;;;;29.15;86.49;100800.44;4987605;28;20043;-92
2022/06/04 08:46:04;;;;;;;36.35;25.02;;;;;;;29.44;84.75;100797.09;5010809;28;20204;-90
2022/06/04 08:48:37;;;;;;;32.70;22.45;;;;;;;29.36;86.11;100795.78;5008234;28;20054;-93
2022/06/04 08:51:12;;;;;;;38.60;26.52;;;;;;;29.22;88.42;100802.88;5006133;28;20042;-92
2022/06/04 08:53:39;;;;;;;38.33;26.90;;;;;;;29.19;87.37;100798.81;4993223;28;20030;-93
2022/06/04 08:59:35;;;;;;;37.90;22.50;;;;;;;29.20;82.17;100805.88;5101299;23;20051;-92
2022/06/04 09:02:06;;;;;;;35.83;24.25;;;;;;;28.88;84.18;100789.06;5009599;28;20061;-91
2022/06/04 09:05:15;;;;;;;35.45;19.35;;;;;;;28.85;80.90;100789.63;5008717;28;20043;-92
2022/06/04 09:07:50;;;;;;;33.10;19.60;;;;;;;29.40;79.14;100794.09;5004775;28;20034;-90
2022/06/04 09:11:01;;;;;;;38.58;25.23;;;;;;;29.28;82.53;100799.06;4996829;28;20065;-89
2022/06/04 09:13:29;;;;;;;40.10;25.35;;;;;;;29.42;81.99;100797.38;4993814;28;20042;-92
2022/06/04 09:16:00;;;;;;;40.03;26.40;;;;;;;28.82;84.08;100792.09;5006549;28;20034;-89
2022/06/04 09:18:32;;;;;;;32.15;23.95;;;;;;;29.17;82.72;100787.34;5008495;28;20065;-88
2022/06/04 09:21:01;;;;;;;35.00;24.02;;;;;;;29.15;82.44;100789.53;4993021;28;20038;-89
2022/06/04 09:23:45;;;;;;;35.03;24.38;;;;;;;29.59;81.02;100794.28;5007492;28;20048;-90
2022/06/04 09:26:13;;;;;;;36.08;23.92;;;;;;;29.75;80.44;100793.94;5008459;28;20191;-90
2022/06/04 09:28:42;;;;;;;37.60;26.17;;;;;;;29.75;82.02;100798.56;5008821;28;20038;-89
2022/06/04 09:31:23;;;;;;;39.17;25.27;;;;;;;29.73;82.10;100795.31;5004281;28;20113;-90
2022/06/04 09:34:05;;;;;;;40.28;24.23;;;;;;;29.56;81.46;100800.31;5001106;28;20038;-91
2022/06/04 09:36:35;;;;;;;31.20;21.52;;;;;;;29.01;81.22;100798.56;5002884;28;20412;-92
2022/06/04 09:39:06;;;;;;;30.48;19.33;;;;;;;29.54;78.89;100808.78;5010329;28;20034;-90
2022/06/04 09:41:34;;;;;;;30.05;17.52;;;;;;;29.41;77.56;100811.31;5007830;28;20049;-90
2022/06/04 09:44:28;;;;;;;32.55;19.23;;;;;;;29.38;79.20;100815.41;5012056;28;20034;-89
2022/06/04 09:46:59;;;;;;;35.15;23.27;;;;;;;29.65;79.67;100807.66;5010308;28;20038;-90
2022/06/04 09:49:34;;;;;;;44.20;25.00;;;;;;;29.66;81.48;100795.59;4991206;28;20039;-90
2022/06/04 09:52:13;;;;;;;43.35;24.67;;;;;;;29.69;81.58;100797.78;5009350;28;20069;-89
2022/06/04 09:54:45;;;;;;;33.83;22.42;;;;;;;29.40;79.00;100793.31;5012301;28;20042;-90
2022/06/04 09:57:31;;;;;;;31.85;17.05;;;;;;;29.61;76.30;100792.09;5009810;28;20065;-90
2022/06/04 09:59:58;;;;;;;20.13;14.63;;;;;;;30.04;73.12;100795.94;4998522;28;20038;-88
2022/06/04 10:02:26;;;;;;;27.42;12.80;;;;;;;30.82;71.88;100806.81;5005477;28;20037;-89
2022/06/04 10:05:17;;;;;;;30.25;19.20;;;;;;;30.57;73.02;100799.66;5007160;28;20030;-90
2022/06/04 10:07:43;;;;;;;32.87;20.20;;;;;;;30.27;74.94;100798.78;5008021;28;20038;-89
2022/06/04 10:10:37;;;;;;;33.33;19.60;;;;;;;29.85;74.43;100786.78;4982885;28;20053;-90
2022/06/04 10:16:34;;;;;;;24.58;15.88;;;;;;;30.35;73.92;100785.59;4913830;29;20048;-91
2022/06/04 10:21:29;;;;;;;35.75;19.95;;;;;;;30.30;73.80;100783.72;4997409;28;20481;-91
2022/06/04 10:24:07;;;;;;;30.52;18.38;;;;;;;30.27;73.82;100787.84;4990063;28;20038;-90
2022/06/04 10:27:01;;;;;;;36.25;19.50;;;;;;;29.77;76.19;100788.16;5003065;28;20042;-94
2022/06/04 10:29:33;;;;;;;30.15;20.13;;;;;;;29.94;74.93;100780.44;5149059;23;20119;-89
2022/06/04 10:32:14;;;;;;;30.27;20.33;;;;;;;29.82;76.47;100782.69;4992414;28;20046;-90
2022/06/04 10:34:59;;;;;;;33.95;21.45;;;;;;;29.87;77.55;100779.13;4982434;28;20137;-93
2022/06/04 10:41:20;;;;;;;34.28;21.88;;;;;;;29.96;74.95;100767.28;4868605;26;20042;-90
2022/06/04 10:49:20;;;;;;;36.05;21.10;;;;;;;30.64;72.94;100770.03;5286599;22;20062;-92
2022/06/04 10:55:52;;;;;;;36.28;23.90;;;;;;;30.42;72.72;100766.97;4689326;26;20049;-91
2022/06/04 10:59:25;;;;;;;28.13;19.85;;;;;;;30.95;72.44;100768.63;5002355;28;20050;-92
2022/06/04 11:02:35;;;;;;;38.70;23.00;;;;;;;31.23;72.83;100769.66;5003987;28;20038;-91
2022/06/04 11:05:06;;;;;;;29.80;20.60;;;;;;;31.50;69.80;100761.66;4933702;29;20071;-90
2022/06/04 11:07:52;;;;;;;35.33;20.38;;;;;;;31.49;70.09;100759.19;4917571;29;20238;-86
2022/06/04 11:10:23;;;;;;;29.42;16.95;;;;;;;31.48;71.94;100754.84;4915740;29;20048;-91
2022/06/04 11:13:28;;;;;;;43.53;22.13;;;;;;;31.57;69.38;100753.91;4924574;29;20163;-89
2022/06/04 11:16:37;;;;;;;32.28;20.92;;;;;;;32.00;67.60;100751.06;4938873;29;20059;-91
2022/06/04 11:19:21;;;;;;;31.60;20.13;;;;;;;31.85;60.41;100754.88;4914810;29;20043;-89
2022/06/04 11:22:10;;;;;;;37.85;21.88;;;;;;;31.73;59.82;100749.00;4915961;29;20039;-89
2022/06/04 11:24:50;;;;;;;30.58;18.70;;;;;;;31.37;60.97;100742.38;4927031;29;20047;-93
2022/06/04 11:27:36;;;;;;;33.85;18.52;;;;;;;30.91;62.49;100740.19;4924230;29;20044;-91
2022/06/04 11:30:06;;;;;;;32.42;16.40;;;;;;;31.10;60.88;100732.84;4901989;29;20147;-86
2022/06/04 11:32:55;;;;;;;31.30;19.52;;;;;;;30.81;60.69;100729.34;4918420;29;20107;-87
2022/06/04 11:35:39;;;;;;;29.52;16.90;;;;;;;30.37;62.79;100726.75;4921762;29;20052;-90
2022/06/04 11:38:20;;;;;;;38.45;20.60;;;;;;;30.05;64.39;100734.72;4932127;29;20027;-92
2022/06/04 11:41:23;;;;;;;33.83;21.77;;;;;;;29.76;66.31;100726.44;4991819;22;20068;-89
2022/06/04 11:44:20;;;;;;;31.27;20.10;;;;;;;29.32;68.77;100720.16;4996106;28;20085;-90
2022/06/04 11:47:33;;;;;;;33.97;17.27;;;;;;;29.32;68.93;100720.16;4995509;28;20057;-89
2022/06/04 11:53:20;;;;;;;34.92;18.40;;;;;;;28.78;68.79;100707.22;4559894;26;20070;-90
2022/06/04 11:56:26;;;;;;;32.67;17.98;;;;;;;29.00;68.14;100704.97;5105336;22;20152;-86
2022/06/04 11:59:29;;;;;;;23.88;14.20;;;;;;;29.13;67.10;100706.28;5026975;28;20479;-93
2022/06/04 12:02:27;;;;;;;37.50;17.92;;;;;;;29.23;66.77;100715.22;5025333;28;20056;-88
2022/06/04 12:07:39;;;;;;;36.08;18.75;;;;;;;29.04;67.45;100703.31;4988649;28;20176;-92
2022/06/04 12:14:31;;;;;;;37.85;21.20;;;;;;;28.66;70.71;100693.09;5011360;28;20106;-91
2022/06/04 12:17:38;;;;;;;33.15;19.83;;;;;;;28.72;71.32;100689.25;5005975;28;20030;-87
2022/06/04 12:26:02;;;;;;;32.80;18.30;;;;;;;29.14;69.49;100683.34;5008275;26;20039;-87
2022/06/04 12:28:57;;;;;;;35.63;16.65;;;;;;;29.11;69.96;100675.72;5010436;28;20102;-88